sensor_id;sensor_type;location;lat;lon;timestamp;P1;durP1;ratioP1;P2;durP2;ratioP2
79052;SDS011;68451;49.510;6.026;2023-06-26T00:02:17;8.88;;;7.97;;
79052;SDS011;68451;49.510;6.026;2023-06-26T00:04:43;8.82;;;7.75;;
79052;SDS011;68451;49.510;6.026;2023-06-26T00:07:08;9.77;;;7.72;;
79052;SDS011;68451;49.510;6.026;2023-06-26T00:09:34;7.97;;;6.53;;
79052;SDS011;68451;49.510;6.026;2023-06-26T00:12:00;8.07;;;7.03;;
79052;SDS011;68451;49.510;6.026;2023-06-26T00:14:25;9.30;;;7.00;;
79052;SDS011;68451;49.510;6.026;2023-06-26T00:16:51;7.70;;;6.90;;
79052;SDS011;68451;49.510;6.026;2023-06-26T00:19:17;18.17;;;7.65;;
79052;SDS011;68451;49.510;6.026;2023-06-26T00:21:43;8.02;;;7.20;;
79052;SDS011;68451;49.510;6.026;2023-06-26T00:24:12;7.55;;;6.82;;
79052;SDS011;68451;49.510;6.026;2023-06-26T00:26:38;9.02;;;6.85;;
79052;SDS011;68451;49.510;6.026;2023-06-26T00:29:03;8.93;;;6.88;;
79052;SDS011;68451;49.510;6.026;2023-06-26T00:31:29;8.80;;;7.90;;
79052;SDS011;68451;49.510;6.026;2023-06-26T00:33:55;8.60;;;7.57;;
79052;SDS011;68451;49.510;6.026;2023-06-26T00:36:20;9.02;;;7.47;;
79052;SDS011;68451;49.510;6.026;2023-06-26T00:38:49;8.63;;;7.72;;
79052;SDS011;68451;49.510;6.026;2023-06-26T00:41:14;9.38;;;7.85;;
79052;SDS011;68451;49.510;6.026;2023-06-26T00:43:40;11.32;;;8.20;;
79052;SDS011;68451;49.510;6.026;2023-06-26T00:46:08;9.02;;;7.55;;
79052;SDS011;68451;49.510;6.026;2023-06-26T00:48:35;10.20;;;8.45;;
79052;SDS011;68451;49.510;6.026;2023-06-26T00:51:02;11.27;;;8.00;;
79052;SDS011;68451;49.510;6.026;2023-06-26T00:53:28;12.00;;;8.43;;
79052;SDS011;68451;49.510;6.026;2023-06-26T00:55:53;12.02;;;9.18;;
79052;SDS011;68451;49.510;6.026;2023-06-26T00:58:21;9.30;;;8.10;;
79052;SDS011;68451;49.510;6.026;2023-06-26T01:00:48;9.30;;;7.03;;
79052;SDS011;68451;49.510;6.026;2023-06-26T01:03:14;9.65;;;8.55;;
79052;SDS011;68451;49.510;6.026;2023-06-26T01:05:40;8.75;;;7.05;;
79052;SDS011;68451;49.510;6.026;2023-06-26T01:08:05;7.68;;;6.45;;
79052;SDS011;68451;49.510;6.026;2023-06-26T01:10:33;9.00;;;7.28;;
79052;SDS011;68451;49.510;6.026;2023-06-26T01:12:58;8.98;;;7.38;;
79052;SDS011;68451;49.510;6.026;2023-06-26T01:15:24;9.00;;;6.63;;
79052;SDS011;68451;49.510;6.026;2023-06-26T01:17:50;9.43;;;6.60;;
79052;SDS011;68451;49.510;6.026;2023-06-26T01:20:16;7.25;;;6.45;;
79052;SDS011;68451;49.510;6.026;2023-06-26T01:22:45;8.35;;;7.30;;
79052;SDS011;68451;49.510;6.026;2023-06-26T01:25:22;6.78;;;6.07;;
79052;SDS011;68451;49.510;6.026;2023-06-26T01:28:04;9.40;;;7.03;;
79052;SDS011;68451;49.510;6.026;2023-06-26T01:30:35;9.07;;;7.20;;
79052;SDS011;68451;49.510;6.026;2023-06-26T01:33:05;7.50;;;6.78;;
79052;SDS011;68451;49.510;6.026;2023-06-26T01:35:30;8.55;;;6.93;;
79052;SDS011;68451;49.510;6.026;2023-06-26T01:40:39;9.88;;;6.80;;
79052;SDS011;68451;49.510;6.026;2023-06-26T01:43:05;9.27;;;7.13;;
79052;SDS011;68451;49.510;6.026;2023-06-26T01:45:35;9.13;;;7.55;;
79052;SDS011;68451;49.510;6.026;2023-06-26T01:48:01;9.98;;;7.20;;
79052;SDS011;68451;49.510;6.026;2023-06-26T01:50:29;8.18;;;6.88;;
79052;SDS011;68451;49.510;6.026;2023-06-26T01:53:08;8.93;;;7.55;;
79052;SDS011;68451;49.510;6.026;2023-06-26T01:55:41;8.93;;;7.75;;
79052;SDS011;68451;49.510;6.026;2023-06-26T01:58:11;10.68;;;7.13;;
79052;SDS011;68451;49.510;6.026;2023-06-26T02:00:39;8.93;;;7.03;;
79052;SDS011;68451;49.510;6.026;2023-06-26T02:03:05;10.57;;;8.98;;
79052;SDS011;68451;49.510;6.026;2023-06-26T02:05:31;9.43;;;8.15;;
79052;SDS011;68451;49.510;6.026;2023-06-26T02:07:58;9.82;;;8.57;;
79052;SDS011;68451;49.510;6.026;2023-06-26T02:10:23;9.60;;;8.35;;
79052;SDS011;68451;49.510;6.026;2023-06-26T02:12:49;8.48;;;7.32;;
79052;SDS011;68451;49.510;6.026;2023-06-26T02:15:14;8.82;;;7.82;;
79052;SDS011;68451;49.510;6.026;2023-06-26T02:17:40;9.85;;;7.55;;
79052;SDS011;68451;49.510;6.026;2023-06-26T02:20:05;8.90;;;8.00;;
79052;SDS011;68451;49.510;6.026;2023-06-26T02:22:33;10.68;;;7.68;;
79052;SDS011;68451;49.510;6.026;2023-06-26T02:24:58;9.20;;;6.97;;
79052;SDS011;68451;49.510;6.026;2023-06-26T02:27:24;8.93;;;7.63;;
79052;SDS011;68451;49.510;6.026;2023-06-26T02:29:49;11.32;;;8.50;;
79052;SDS011;68451;49.510;6.026;2023-06-26T02:32:15;9.20;;;7.43;;
79052;SDS011;68451;49.510;6.026;2023-06-26T02:34:40;8.75;;;7.85;;
79052;SDS011;68451;49.510;6.026;2023-06-26T02:37:06;9.48;;;8.32;;
79052;SDS011;68451;49.510;6.026;2023-06-26T02:39:32;9.75;;;7.43;;
79052;SDS011;68451;49.510;6.026;2023-06-26T02:41:59;8.77;;;7.38;;
79052;SDS011;68451;49.510;6.026;2023-06-26T02:44:24;9.10;;;8.20;;
79052;SDS011;68451;49.510;6.026;2023-06-26T02:46:49;8.82;;;7.55;;
79052;SDS011;68451;49.510;6.026;2023-06-26T02:49:15;9.02;;;7.45;;
79052;SDS011;68451;49.510;6.026;2023-06-26T02:51:40;8.65;;;7.75;;
79052;SDS011;68451;49.510;6.026;2023-06-26T02:54:06;9.45;;;7.70;;
79052;SDS011;68451;49.510;6.026;2023-06-26T02:56:32;9.00;;;8.10;;
79052;SDS011;68451;49.510;6.026;2023-06-26T02:58:57;7.70;;;6.88;;
79052;SDS011;68451;49.510;6.026;2023-06-26T03:01:23;10.30;;;7.03;;
79052;SDS011;68451;49.510;6.026;2023-06-26T03:03:49;9.00;;;6.97;;
79052;SDS011;68451;49.510;6.026;2023-06-26T03:06:14;8.85;;;6.78;;
79052;SDS011;68451;49.510;6.026;2023-06-26T03:08:40;7.45;;;6.70;;
79052;SDS011;68451;49.510;6.026;2023-06-26T03:11:06;9.82;;;7.45;;
79052;SDS011;68451;49.510;6.026;2023-06-26T03:13:33;11.80;;;7.63;;
79052;SDS011;68451;49.510;6.026;2023-06-26T03:15:59;8.30;;;7.18;;
79052;SDS011;68451;49.510;6.026;2023-06-26T03:18:25;9.30;;;6.95;;
79052;SDS011;68451;49.510;6.026;2023-06-26T03:20:51;9.25;;;6.38;;
79052;SDS011;68451;49.510;6.026;2023-06-26T03:23:19;8.23;;;6.85;;
79052;SDS011;68451;49.510;6.026;2023-06-26T03:25:45;9.20;;;6.32;;
79052;SDS011;68451;49.510;6.026;2023-06-26T03:28:11;9.77;;;6.50;;
79052;SDS011;68451;49.510;6.026;2023-06-26T03:30:36;7.38;;;6.30;;
79052;SDS011;68451;49.510;6.026;2023-06-26T03:33:02;8.25;;;6.72;;
79052;SDS011;68451;49.510;6.026;2023-06-26T03:35:28;9.25;;;6.80;;
79052;SDS011;68451;49.510;6.026;2023-06-26T03:37:53;9.45;;;7.05;;
79052;SDS011;68451;49.510;6.026;2023-06-26T03:40:19;9.38;;;7.45;;
79052;SDS011;68451;49.510;6.026;2023-06-26T03:42:45;8.88;;;7.18;;
79052;SDS011;68451;49.510;6.026;2023-06-26T03:45:10;10.07;;;7.97;;
79052;SDS011;68451;49.510;6.026;2023-06-26T03:47:36;9.77;;;7.68;;
79052;SDS011;68451;49.510;6.026;2023-06-26T03:50:01;8.02;;;6.78;;
79052;SDS011;68451;49.510;6.026;2023-06-26T03:52:27;7.75;;;6.47;;
79052;SDS011;68451;49.510;6.026;2023-06-26T03:54:52;10.27;;;7.22;;
79052;SDS011;68451;49.510;6.026;2023-06-26T03:57:17;9.55;;;8.05;;
79052;SDS011;68451;49.510;6.026;2023-06-26T03:59:43;11.88;;;8.73;;
79052;SDS011;68451;49.510;6.026;2023-06-26T04:02:08;9.85;;;7.85;;
79052;SDS011;68451;49.510;6.026;2023-06-26T04:04:34;8.88;;;7.47;;
79052;SDS011;68451;49.510;6.026;2023-06-26T04:06:59;9.07;;;6.82;;
79052;SDS011;68451;49.510;6.026;2023-06-26T04:09:25;11.70;;;7.20;;
79052;SDS011;68451;49.510;6.026;2023-06-26T04:11:51;11.07;;;7.68;;
79052;SDS011;68451;49.510;6.026;2023-06-26T04:14:16;8.63;;;7.20;;
79052;SDS011;68451;49.510;6.026;2023-06-26T04:16:42;8.27;;;6.82;;
79052;SDS011;68451;49.510;6.026;2023-06-26T04:19:08;7.45;;;6.65;;
79052;SDS011;68451;49.510;6.026;2023-06-26T04:21:35;11.68;;;7.00;;
79052;SDS011;68451;49.510;6.026;2023-06-26T04:24:00;8.55;;;6.75;;
79052;SDS011;68451;49.510;6.026;2023-06-26T04:26:26;6.63;;;5.97;;
79052;SDS011;68451;49.510;6.026;2023-06-26T04:28:53;9.25;;;6.45;;
79052;SDS011;68451;49.510;6.026;2023-06-26T04:31:18;7.10;;;6.32;;
79052;SDS011;68451;49.510;6.026;2023-06-26T04:33:44;8.10;;;6.75;;
79052;SDS011;68451;49.510;6.026;2023-06-26T04:36:09;9.38;;;6.55;;
79052;SDS011;68451;49.510;6.026;2023-06-26T04:38:36;6.50;;;5.63;;
79052;SDS011;68451;49.510;6.026;2023-06-26T04:41:01;10.60;;;5.88;;
79052;SDS011;68451;49.510;6.026;2023-06-26T04:43:27;7.32;;;5.45;;
79052;SDS011;68451;49.510;6.026;2023-06-26T04:45:53;7.93;;;5.70;;
79052;SDS011;68451;49.510;6.026;2023-06-26T04:48:19;7.63;;;5.82;;
79052;SDS011;68451;49.510;6.026;2023-06-26T04:50:44;8.73;;;5.82;;
79052;SDS011;68451;49.510;6.026;2023-06-26T04:53:17;7.63;;;5.95;;
79052;SDS011;68451;49.510;6.026;2023-06-26T04:55:43;7.70;;;5.47;;
79052;SDS011;68451;49.510;6.026;2023-06-26T04:58:08;7.82;;;5.32;;
79052;SDS011;68451;49.510;6.026;2023-06-26T05:00:34;8.35;;;5.10;;
79052;SDS011;68451;49.510;6.026;2023-06-26T05:03:01;8.45;;;5.90;;
79052;SDS011;68451;49.510;6.026;2023-06-26T05:05:27;7.20;;;4.82;;
79052;SDS011;68451;49.510;6.026;2023-06-26T05:07:54;11.18;;;4.57;;
79052;SDS011;68451;49.510;6.026;2023-06-26T05:10:20;6.18;;;4.55;;
79052;SDS011;68451;49.510;6.026;2023-06-26T05:12:46;5.72;;;4.13;;
79052;SDS011;68451;49.510;6.026;2023-06-26T05:15:11;7.63;;;4.82;;
79052;SDS011;68451;49.510;6.026;2023-06-26T05:17:38;9.27;;;4.93;;
79052;SDS011;68451;49.510;6.026;2023-06-26T05:20:03;6.93;;;4.35;;
79052;SDS011;68451;49.510;6.026;2023-06-26T05:22:31;4.97;;;3.92;;
79052;SDS011;68451;49.510;6.026;2023-06-26T05:24:58;5.47;;;4.22;;
79052;SDS011;68451;49.510;6.026;2023-06-26T05:27:25;9.70;;;4.80;;
79052;SDS011;68451;49.510;6.026;2023-06-26T05:29:51;9.57;;;4.93;;
79052;SDS011;68451;49.510;6.026;2023-06-26T05:32:17;9.20;;;4.30;;
79052;SDS011;68451;49.510;6.026;2023-06-26T05:34:44;5.25;;;3.78;;
79052;SDS011;68451;49.510;6.026;2023-06-26T05:37:13;7.20;;;3.80;;
79052;SDS011;68451;49.510;6.026;2023-06-26T05:39:41;8.02;;;3.60;;
79052;SDS011;68451;49.510;6.026;2023-06-26T05:42:07;5.43;;;3.60;;
79052;SDS011;68451;49.510;6.026;2023-06-26T05:44:33;5.35;;;3.67;;
79052;SDS011;68451;49.510;6.026;2023-06-26T05:46:59;5.82;;;3.38;;
79052;SDS011;68451;49.510;6.026;2023-06-26T05:49:24;3.63;;;3.17;;
79052;SDS011;68451;49.510;6.026;2023-06-26T05:51:50;6.32;;;3.67;;
79052;SDS011;68451;49.510;6.026;2023-06-26T05:54:16;5.82;;;4.25;;
79052;SDS011;68451;49.510;6.026;2023-06-26T05:56:41;4.93;;;3.58;;
79052;SDS011;68451;49.510;6.026;2023-06-26T05:59:08;10.52;;;5.15;;
79052;SDS011;68451;49.510;6.026;2023-06-26T06:01:36;9.02;;;4.38;;
79052;SDS011;68451;49.510;6.026;2023-06-26T06:04:02;7.70;;;4.97;;
79052;SDS011;68451;49.510;6.026;2023-06-26T06:06:27;6.78;;;3.63;;
79052;SDS011;68451;49.510;6.026;2023-06-26T06:08:53;7.50;;;4.50;;
79052;SDS011;68451;49.510;6.026;2023-06-26T06:11:18;6.72;;;3.72;;
79052;SDS011;68451;49.510;6.026;2023-06-26T06:13:44;4.28;;;3.25;;
79052;SDS011;68451;49.510;6.026;2023-06-26T06:16:09;8.93;;;3.78;;
79052;SDS011;68451;49.510;6.026;2023-06-26T06:18:35;5.22;;;3.72;;
79052;SDS011;68451;49.510;6.026;2023-06-26T06:21:00;11.10;;;4.32;;
79052;SDS011;68451;49.510;6.026;2023-06-26T06:23:27;7.47;;;4.25;;
79052;SDS011;68451;49.510;6.026;2023-06-26T06:25:52;6.60;;;3.65;;
79052;SDS011;68451;49.510;6.026;2023-06-26T06:28:18;5.88;;;3.20;;
79052;SDS011;68451;49.510;6.026;2023-06-26T06:30:43;7.93;;;4.35;;
79052;SDS011;68451;49.510;6.026;2023-06-26T06:33:09;6.93;;;4.05;;
79052;SDS011;68451;49.510;6.026;2023-06-26T06:35:34;5.13;;;3.33;;
79052;SDS011;68451;49.510;6.026;2023-06-26T06:38:00;5.78;;;3.33;;
79052;SDS011;68451;49.510;6.026;2023-06-26T06:40:25;6.93;;;3.63;;
79052;SDS011;68451;49.510;6.026;2023-06-26T06:42:51;9.95;;;4.30;;
79052;SDS011;68451;49.510;6.026;2023-06-26T06:45:19;6.65;;;3.67;;
79052;SDS011;68451;49.510;6.026;2023-06-26T06:47:45;5.47;;;2.55;;
79052;SDS011;68451;49.510;6.026;2023-06-26T06:50:11;4.70;;;2.95;;
79052;SDS011;68451;49.510;6.026;2023-06-26T06:52:42;7.22;;;2.85;;
79052;SDS011;68451;49.510;6.026;2023-06-26T06:55:07;5.03;;;2.58;;
79052;SDS011;68451;49.510;6.026;2023-06-26T06:57:37;6.53;;;3.00;;
79052;SDS011;68451;49.510;6.026;2023-06-26T07:00:08;4.22;;;2.50;;
79052;SDS011;68451;49.510;6.026;2023-06-26T07:02:37;4.50;;;2.63;;
79052;SDS011;68451;49.510;6.026;2023-06-26T07:05:04;6.50;;;2.92;;
79052;SDS011;68451;49.510;6.026;2023-06-26T07:07:33;6.05;;;3.10;;
79052;SDS011;68451;49.510;6.026;2023-06-26T07:10:01;8.07;;;3.45;;
79052;SDS011;68451;49.510;6.026;2023-06-26T07:12:28;8.65;;;3.10;;
79052;SDS011;68451;49.510;6.026;2023-06-26T07:14:54;5.72;;;3.35;;
79052;SDS011;68451;49.510;6.026;2023-06-26T07:17:20;4.63;;;2.83;;
79052;SDS011;68451;49.510;6.026;2023-06-26T07:19:46;7.03;;;3.70;;
79052;SDS011;68451;49.510;6.026;2023-06-26T07:22:12;3.78;;;2.75;;
79052;SDS011;68451;49.510;6.026;2023-06-26T07:24:38;6.00;;;3.15;;
79052;SDS011;68451;49.510;6.026;2023-06-26T07:27:03;5.00;;;2.70;;
79052;SDS011;68451;49.510;6.026;2023-06-26T07:29:29;7.00;;;3.67;;
79052;SDS011;68451;49.510;6.026;2023-06-26T07:31:54;4.40;;;2.80;;
79052;SDS011;68451;49.510;6.026;2023-06-26T07:34:20;5.80;;;3.10;;
79052;SDS011;68451;49.510;6.026;2023-06-26T07:36:45;5.70;;;3.15;;
79052;SDS011;68451;49.510;6.026;2023-06-26T07:39:10;10.48;;;3.65;;
79052;SDS011;68451;49.510;6.026;2023-06-26T07:41:36;9.30;;;3.13;;
79052;SDS011;68451;49.510;6.026;2023-06-26T07:44:02;6.35;;;3.28;;
79052;SDS011;68451;49.510;6.026;2023-06-26T07:46:27;9.00;;;3.55;;
79052;SDS011;68451;49.510;6.026;2023-06-26T07:48:53;6.32;;;3.13;;
79052;SDS011;68451;49.510;6.026;2023-06-26T07:51:19;4.63;;;3.05;;
79052;SDS011;68451;49.510;6.026;2023-06-26T07:53:44;4.18;;;2.90;;
79052;SDS011;68451;49.510;6.026;2023-06-26T07:56:10;6.07;;;3.45;;
79052;SDS011;68451;49.510;6.026;2023-06-26T07:58:37;6.03;;;3.38;;
79052;SDS011;68451;49.510;6.026;2023-06-26T08:01:03;7.95;;;3.63;;
79052;SDS011;68451;49.510;6.026;2023-06-26T08:03:28;7.13;;;3.58;;
79052;SDS011;68451;49.510;6.026;2023-06-26T08:05:54;5.53;;;3.38;;
79052;SDS011;68451;49.510;6.026;2023-06-26T08:08:19;7.00;;;3.63;;
79052;SDS011;68451;49.510;6.026;2023-06-26T08:10:45;9.13;;;3.33;;
79052;SDS011;68451;49.510;6.026;2023-06-26T08:13:11;6.65;;;3.75;;
79052;SDS011;68451;49.510;6.026;2023-06-26T08:15:37;7.85;;;3.65;;
79052;SDS011;68451;49.510;6.026;2023-06-26T08:18:02;9.95;;;4.28;;
79052;SDS011;68451;49.510;6.026;2023-06-26T08:20:28;7.78;;;3.88;;
79052;SDS011;68451;49.510;6.026;2023-06-26T08:22:54;5.45;;;3.42;;
79052;SDS011;68451;49.510;6.026;2023-06-26T08:25:20;4.90;;;3.47;;
79052;SDS011;68451;49.510;6.026;2023-06-26T08:27:45;4.30;;;3.13;;
79052;SDS011;68451;49.510;6.026;2023-06-26T08:30:12;6.43;;;3.08;;
79052;SDS011;68451;49.510;6.026;2023-06-26T08:32:40;7.25;;;3.20;;
79052;SDS011;68451;49.510;6.026;2023-06-26T08:35:06;11.68;;;3.67;;
79052;SDS011;68451;49.510;6.026;2023-06-26T08:37:32;6.53;;;3.58;;
79052;SDS011;68451;49.510;6.026;2023-06-26T08:39:58;5.03;;;2.70;;
79052;SDS011;68451;49.510;6.026;2023-06-26T08:42:24;5.28;;;3.20;;
79052;SDS011;68451;49.510;6.026;2023-06-26T08:44:50;8.05;;;2.63;;
79052;SDS011;68451;49.510;6.026;2023-06-26T08:47:15;4.28;;;2.53;;
79052;SDS011;68451;49.510;6.026;2023-06-26T08:52:28;4.82;;;3.20;;
79052;SDS011;68451;49.510;6.026;2023-06-26T08:54:59;4.95;;;2.80;;
79052;SDS011;68451;49.510;6.026;2023-06-26T08:57:27;7.35;;;3.28;;
79052;SDS011;68451;49.510;6.026;2023-06-26T08:59:55;7.18;;;3.08;;
79052;SDS011;68451;49.510;6.026;2023-06-26T09:02:21;5.45;;;2.47;;
79052;SDS011;68451;49.510;6.026;2023-06-26T09:04:47;10.70;;;2.55;;
79052;SDS011;68451;49.510;6.026;2023-06-26T09:07:16;6.70;;;2.92;;
79052;SDS011;68451;49.510;6.026;2023-06-26T09:09:42;4.38;;;2.38;;
79052;SDS011;68451;49.510;6.026;2023-06-26T09:12:08;7.18;;;3.25;;
79052;SDS011;68451;49.510;6.026;2023-06-26T09:14:34;5.78;;;2.80;;
79052;SDS011;68451;49.510;6.026;2023-06-26T09:17:00;5.10;;;2.30;;
79052;SDS011;68451;49.510;6.026;2023-06-26T09:19:27;4.07;;;2.63;;
79052;SDS011;68451;49.510;6.026;2023-06-26T09:21:58;5.07;;;2.88;;
79052;SDS011;68451;49.510;6.026;2023-06-26T09:24:26;4.50;;;2.20;;
79052;SDS011;68451;49.510;6.026;2023-06-26T09:26:58;6.70;;;2.88;;
79052;SDS011;68451;49.510;6.026;2023-06-26T09:29:25;5.80;;;3.25;;
79052;SDS011;68451;49.510;6.026;2023-06-26T09:31:56;6.25;;;2.40;;
79052;SDS011;68451;49.510;6.026;2023-06-26T09:34:29;3.67;;;2.28;;
79052;SDS011;68451;49.510;6.026;2023-06-26T09:37:01;3.78;;;1.80;;
79052;SDS011;68451;49.510;6.026;2023-06-26T09:39:32;3.50;;;2.10;;
79052;SDS011;68451;49.510;6.026;2023-06-26T09:44:30;4.43;;;1.88;;
79052;SDS011;68451;49.510;6.026;2023-06-26T09:47:01;3.72;;;2.05;;
79052;SDS011;68451;49.510;6.026;2023-06-26T09:49:30;5.60;;;2.30;;
79052;SDS011;68451;49.510;6.026;2023-06-26T09:51:59;6.27;;;1.90;;
79052;SDS011;68451;49.510;6.026;2023-06-26T09:54:27;6.38;;;2.20;;
79052;SDS011;68451;49.510;6.026;2023-06-26T09:56:55;9.55;;;2.35;;
79052;SDS011;68451;49.510;6.026;2023-06-26T09:59:34;3.85;;;1.80;;
79052;SDS011;68451;49.510;6.026;2023-06-26T10:02:00;4.30;;;2.05;;
79052;SDS011;68451;49.510;6.026;2023-06-26T10:04:26;3.47;;;2.00;;
79052;SDS011;68451;49.510;6.026;2023-06-26T10:06:52;3.22;;;2.30;;
79052;SDS011;68451;49.510;6.026;2023-06-26T10:09:24;3.40;;;1.58;;
79052;SDS011;68451;49.510;6.026;2023-06-26T10:11:57;2.63;;;1.80;;
79052;SDS011;68451;49.510;6.026;2023-06-26T10:14:38;2.83;;;2.05;;
79052;SDS011;68451;49.510;6.026;2023-06-26T10:17:15;2.37;;;1.20;;
79052;SDS011;68451;49.510;6.026;2023-06-26T10:19:44;4.20;;;1.67;;
79052;SDS011;68451;49.510;6.026;2023-06-26T10:22:16;4.15;;;1.50;;
79052;SDS011;68451;49.510;6.026;2023-06-26T10:24:48;1.90;;;1.48;;
79052;SDS011;68451;49.510;6.026;2023-06-26T10:27:18;3.80;;;1.45;;
79052;SDS011;68451;49.510;6.026;2023-06-26T10:29:46;4.25;;;1.73;;
79052;SDS011;68451;49.510;6.026;2023-06-26T10:32:14;4.60;;;1.95;;
79052;SDS011;68451;49.510;6.026;2023-06-26T10:34:41;3.35;;;1.25;;
79052;SDS011;68451;49.510;6.026;2023-06-26T10:37:08;2.13;;;1.40;;
79052;SDS011;68451;49.510;6.026;2023-06-26T10:39:45;2.55;;;1.48;;
79052;SDS011;68451;49.510;6.026;2023-06-26T10:42:14;2.83;;;1.10;;
79052;SDS011;68451;49.510;6.026;2023-06-26T10:44:41;1.73;;;1.33;;
79052;SDS011;68451;49.510;6.026;2023-06-26T10:47:08;3.67;;;1.10;;
79052;SDS011;68451;49.510;6.026;2023-06-26T10:49:41;1.75;;;1.20;;
79052;SDS011;68451;49.510;6.026;2023-06-26T10:52:12;5.13;;;1.52;;
79052;SDS011;68451;49.510;6.026;2023-06-26T10:54:37;3.08;;;1.40;;
79052;SDS011;68451;49.510;6.026;2023-06-26T10:57:03;3.25;;;1.77;;
79052;SDS011;68451;49.510;6.026;2023-06-26T10:59:39;3.03;;;1.48;;
79052;SDS011;68451;49.510;6.026;2023-06-26T11:02:06;3.20;;;1.55;;
79052;SDS011;68451;49.510;6.026;2023-06-26T11:04:38;4.03;;;1.50;;
79052;SDS011;68451;49.510;6.026;2023-06-26T11:07:19;2.45;;;1.40;;
79052;SDS011;68451;49.510;6.026;2023-06-26T11:09:55;3.28;;;1.20;;
79052;SDS011;68451;49.510;6.026;2023-06-26T11:15:08;4.68;;;1.45;;
79052;SDS011;68451;49.510;6.026;2023-06-26T11:17:36;6.55;;;1.83;;
79052;SDS011;68451;49.510;6.026;2023-06-26T11:20:02;2.72;;;2.00;;
79052;SDS011;68451;49.510;6.026;2023-06-26T11:22:34;4.72;;;1.50;;
79052;SDS011;68451;49.510;6.026;2023-06-26T11:25:01;3.28;;;2.22;;
79052;SDS011;68451;49.510;6.026;2023-06-26T11:27:37;3.78;;;2.00;;
79052;SDS011;68451;49.510;6.026;2023-06-26T11:30:05;3.03;;;1.42;;
79052;SDS011;68451;49.510;6.026;2023-06-26T11:32:32;2.97;;;1.83;;
79052;SDS011;68451;49.510;6.026;2023-06-26T11:34:58;4.43;;;1.45;;
79052;SDS011;68451;49.510;6.026;2023-06-26T11:37:24;2.42;;;1.58;;
79052;SDS011;68451;49.510;6.026;2023-06-26T11:39:50;3.90;;;1.77;;
79052;SDS011;68451;49.510;6.026;2023-06-26T11:42:17;2.70;;;1.60;;
79052;SDS011;68451;49.510;6.026;2023-06-26T11:44:44;5.20;;;1.42;;
79052;SDS011;68451;49.510;6.026;2023-06-26T11:47:19;2.40;;;1.63;;
79052;SDS011;68451;49.510;6.026;2023-06-26T11:49:46;2.92;;;1.67;;
79052;SDS011;68451;49.510;6.026;2023-06-26T11:52:14;7.32;;;1.80;;
79052;SDS011;68451;49.510;6.026;2023-06-26T11:54:42;2.72;;;1.83;;
79052;SDS011;68451;49.510;6.026;2023-06-26T11:57:08;2.47;;;1.65;;
79052;SDS011;68451;49.510;6.026;2023-06-26T11:59:41;4.72;;;1.52;;
79052;SDS011;68451;49.510;6.026;2023-06-26T12:02:10;3.30;;;1.50;;
79052;SDS011;68451;49.510;6.026;2023-06-26T12:04:43;3.38;;;1.70;;
79052;SDS011;68451;49.510;6.026;2023-06-26T12:07:10;6.18;;;2.08;;
79052;SDS011;68451;49.510;6.026;2023-06-26T12:09:40;4.18;;;1.67;;
79052;SDS011;68451;49.510;6.026;2023-06-26T12:12:08;6.03;;;2.53;;
79052;SDS011;68451;49.510;6.026;2023-06-26T12:14:36;5.43;;;1.70;;
79052;SDS011;68451;49.510;6.026;2023-06-26T12:17:05;5.72;;;1.77;;
79052;SDS011;68451;49.510;6.026;2023-06-26T12:19:33;3.67;;;1.70;;
79052;SDS011;68451;49.510;6.026;2023-06-26T12:22:05;3.58;;;1.65;;
79052;SDS011;68451;49.510;6.026;2023-06-26T12:24:36;2.05;;;1.60;;
79052;SDS011;68451;49.510;6.026;2023-06-26T12:27:07;3.35;;;2.13;;
79052;SDS011;68451;49.510;6.026;2023-06-26T12:29:38;2.40;;;1.60;;
79052;SDS011;68451;49.510;6.026;2023-06-26T12:32:14;4.80;;;1.90;;
79052;SDS011;68451;49.510;6.026;2023-06-26T12:34:41;5.43;;;1.85;;
79052;SDS011;68451;49.510;6.026;2023-06-26T12:37:07;5.82;;;1.80;;
79052;SDS011;68451;49.510;6.026;2023-06-26T12:42:16;4.50;;;2.28;;
79052;SDS011;68451;49.510;6.026;2023-06-26T12:44:44;4.35;;;1.50;;
79052;SDS011;68451;49.510;6.026;2023-06-26T12:47:10;4.47;;;1.80;;
79052;SDS011;68451;49.510;6.026;2023-06-26T12:49:40;3.97;;;1.55;;
79052;SDS011;68451;49.510;6.026;2023-06-26T12:52:08;4.53;;;1.58;;
79052;SDS011;68451;49.510;6.026;2023-06-26T12:54:38;6.30;;;2.00;;
79052;SDS011;68451;49.510;6.026;2023-06-26T12:57:05;4.63;;;1.70;;
79052;SDS011;68451;49.510;6.026;2023-06-26T12:59:38;5.18;;;2.10;;
79052;SDS011;68451;49.510;6.026;2023-06-26T13:02:03;5.70;;;2.00;;
79052;SDS011;68451;49.510;6.026;2023-06-26T13:04:30;7.13;;;1.77;;
79052;SDS011;68451;49.510;6.026;2023-06-26T13:06:56;5.07;;;1.77;;
79052;SDS011;68451;49.510;6.026;2023-06-26T13:09:22;4.38;;;1.92;;
79052;SDS011;68451;49.510;6.026;2023-06-26T13:11:49;3.78;;;1.90;;
79052;SDS011;68451;49.510;6.026;2023-06-26T13:14:15;3.92;;;1.75;;
79052;SDS011;68451;49.510;6.026;2023-06-26T13:16:43;5.18;;;2.10;;
79052;SDS011;68451;49.510;6.026;2023-06-26T13:19:09;6.50;;;2.00;;
79052;SDS011;68451;49.510;6.026;2023-06-26T13:21:35;6.05;;;2.25;;
79052;SDS011;68451;49.510;6.026;2023-06-26T13:24:01;7.05;;;1.90;;
79052;SDS011;68451;49.510;6.026;2023-06-26T13:26:27;5.95;;;2.40;;
79052;SDS011;68451;49.510;6.026;2023-06-26T13:28:54;6.82;;;2.45;;
79052;SDS011;68451;49.510;6.026;2023-06-26T13:31:20;6.75;;;1.90;;
79052;SDS011;68451;49.510;6.026;2023-06-26T13:33:46;3.33;;;1.83;;
79052;SDS011;68451;49.510;6.026;2023-06-26T13:36:14;4.00;;;1.85;;
79052;SDS011;68451;49.510;6.026;2023-06-26T13:38:42;4.30;;;2.17;;
79052;SDS011;68451;49.510;6.026;2023-06-26T13:41:07;7.10;;;2.53;;
79052;SDS011;68451;49.510;6.026;2023-06-26T13:43:33;4.75;;;2.28;;
79052;SDS011;68451;49.510;6.026;2023-06-26T13:45:58;3.85;;;2.10;;
79052;SDS011;68451;49.510;6.026;2023-06-26T13:48:25;3.35;;;1.85;;
79052;SDS011;68451;49.510;6.026;2023-06-26T13:50:50;4.72;;;2.15;;
79052;SDS011;68451;49.510;6.026;2023-06-26T13:53:16;3.10;;;1.77;;
79052;SDS011;68451;49.510;6.026;2023-06-26T13:55:42;3.50;;;1.90;;
79052;SDS011;68451;49.510;6.026;2023-06-26T13:58:08;5.55;;;1.65;;
79052;SDS011;68451;49.510;6.026;2023-06-26T14:00:34;2.83;;;1.95;;
79052;SDS011;68451;49.510;6.026;2023-06-26T14:03:01;6.53;;;1.88;;
79052;SDS011;68451;49.510;6.026;2023-06-26T14:05:29;5.80;;;2.40;;
79052;SDS011;68451;49.510;6.026;2023-06-26T14:07:55;6.72;;;3.00;;
79052;SDS011;68451;49.510;6.026;2023-06-26T14:10:21;5.28;;;2.28;;
79052;SDS011;68451;49.510;6.026;2023-06-26T14:12:47;5.75;;;2.30;;
79052;SDS011;68451;49.510;6.026;2023-06-26T14:15:13;4.38;;;1.80;;
79052;SDS011;68451;49.510;6.026;2023-06-26T14:17:39;4.95;;;2.10;;
79052;SDS011;68451;49.510;6.026;2023-06-26T14:20:08;3.38;;;1.83;;
79052;SDS011;68451;49.510;6.026;2023-06-26T14:22:37;4.43;;;2.28;;
79052;SDS011;68451;49.510;6.026;2023-06-26T14:25:04;4.20;;;1.85;;
79052;SDS011;68451;49.510;6.026;2023-06-26T14:27:29;4.90;;;1.80;;
79052;SDS011;68451;49.510;6.026;2023-06-26T14:29:55;6.72;;;2.20;;
79052;SDS011;68451;49.510;6.026;2023-06-26T14:32:20;5.28;;;2.78;;
79052;SDS011;68451;49.510;6.026;2023-06-26T14:34:46;4.03;;;2.38;;
79052;SDS011;68451;49.510;6.026;2023-06-26T14:37:11;5.05;;;1.80;;
79052;SDS011;68451;49.510;6.026;2023-06-26T14:39:42;5.70;;;2.35;;
79052;SDS011;68451;49.510;6.026;2023-06-26T14:42:15;4.07;;;1.85;;
79052;SDS011;68451;49.510;6.026;2023-06-26T14:44:42;3.30;;;1.80;;
79052;SDS011;68451;49.510;6.026;2023-06-26T14:47:08;6.20;;;2.33;;
79052;SDS011;68451;49.510;6.026;2023-06-26T14:49:38;5.15;;;2.10;;
79052;SDS011;68451;49.510;6.026;2023-06-26T14:52:14;8.77;;;2.60;;
79052;SDS011;68451;49.510;6.026;2023-06-26T14:54:42;7.50;;;3.00;;
79052;SDS011;68451;49.510;6.026;2023-06-26T14:57:07;7.72;;;3.15;;
79052;SDS011;68451;49.510;6.026;2023-06-26T14:59:36;4.82;;;2.40;;
79052;SDS011;68451;49.510;6.026;2023-06-26T15:02:03;5.10;;;2.23;;